sensor_id;sensor_type;location;lat;lon;timestamp;temperature;humidity
10417;DHT22;62605;49.432;8.680;2023-07-30T01:03:32;19.50;99.90
10417;DHT22;62605;49.432;8.680;2023-07-30T01:12:23;19.40;99.90
10417;DHT22;62605;49.432;8.680;2023-07-30T01:14:50;19.40;99.90
10417;DHT22;62605;49.432;8.680;2023-07-30T01:17:19;19.40;99.90
10417;DHT22;62605;49.432;8.680;2023-07-30T01:19:47;19.40;99.90
10417;DHT22;62605;49.432;8.680;2023-07-30T01:22:17;19.40;99.90
10417;DHT22;62605;49.432;8.680;2023-07-30T01:24:45;19.40;99.90
10417;DHT22;62605;49.432;8.680;2023-07-30T01:27:18;19.40;99.90
10417;DHT22;62605;49.432;8.680;2023-07-30T01:29:55;19.40;99.90
10417;DHT22;62605;49.432;8.680;2023-07-30T01:32:37;19.40;99.90
10417;DHT22;62605;49.432;8.680;2023-07-30T01:35:08;19.40;99.90
10417;DHT22;62605;49.432;8.680;2023-07-30T01:37:39;19.40;99.90
10417;DHT22;62605;49.432;8.680;2023-07-30T01:40:11;19.40;99.90
10417;DHT22;62605;49.432;8.680;2023-07-30T01:42:56;19.40;99.90
10417;DHT22;62605;49.432;8.680;2023-07-30T01:45:24;19.40;99.90
10417;DHT22;62605;49.432;8.680;2023-07-30T01:48:09;19.30;99.90
10417;DHT22;62605;49.432;8.680;2023-07-30T01:50:39;19.30;99.90
10417;DHT22;62605;49.432;8.680;2023-07-30T01:53:21;19.30;99.90
10417;DHT22;62605;49.432;8.680;2023-07-30T01:55:48;19.30;99.90
10417;DHT22;62605;49.432;8.680;2023-07-30T02:01:37;19.20;99.90
10417;DHT22;62605;49.432;8.680;2023-07-30T02:04:04;19.20;99.90
10417;DHT22;62605;49.432;8.680;2023-07-30T02:06:35;19.20;99.90
10417;DHT22;62605;49.432;8.680;2023-07-30T02:09:29;19.20;99.90
10417;DHT22;62605;49.432;8.680;2023-07-30T02:12:41;19.10;99.90
10417;DHT22;62605;49.432;8.680;2023-07-30T02:17:55;19.00;99.90
10417;DHT22;62605;49.432;8.680;2023-07-30T02:21:00;19.00;99.90
10417;DHT22;62605;49.432;8.680;2023-07-30T02:30:33;18.90;99.90
10417;DHT22;62605;49.432;8.680;2023-07-30T02:33:17;18.90;99.90
10417;DHT22;62605;49.432;8.680;2023-07-30T02:35:50;18.90;99.90
10417;DHT22;62605;49.432;8.680;2023-07-30T02:38:22;18.80;99.90
10417;DHT22;62605;49.432;8.680;2023-07-30T02:41:06;18.80;99.90
10417;DHT22;62605;49.432;8.680;2023-07-30T02:43:59;18.80;99.90
10417;DHT22;62605;49.432;8.680;2023-07-30T02:46:31;18.70;99.90
10417;DHT22;62605;49.432;8.680;2023-07-30T02:52:21;18.80;99.90
10417;DHT22;62605;49.432;8.680;2023-07-30T02:55:10;18.80;99.90
10417;DHT22;62605;49.432;8.680;2023-07-30T02:58:11;18.80;99.90
10417;DHT22;62605;49.432;8.680;2023-07-30T03:22:21;18.70;99.90
10417;DHT22;62605;49.432;8.680;2023-07-30T03:24:55;18.70;99.90
10417;DHT22;62605;49.432;8.680;2023-07-30T03:28:08;18.70;99.90
10417;DHT22;62605;49.432;8.680;2023-07-30T03:34:09;18.60;99.90
10417;DHT22;62605;49.432;8.680;2023-07-30T03:36:36;18.60;99.90
10417;DHT22;62605;49.432;8.680;2023-07-30T03:39:05;18.60;99.90
10417;DHT22;62605;49.432;8.680;2023-07-30T03:41:32;18.60;99.90
10417;DHT22;62605;49.432;8.680;2023-07-30T03:44:02;18.60;99.90
10417;DHT22;62605;49.432;8.680;2023-07-30T03:46:29;18.60;99.90
10417;DHT22;62605;49.432;8.680;2023-07-30T03:48:57;18.50;99.90
10417;DHT22;62605;49.432;8.680;2023-07-30T03:51:31;18.50;99.90
10417;DHT22;62605;49.432;8.680;2023-07-30T03:53:58;18.50;99.90
10417;DHT22;62605;49.432;8.680;2023-07-30T03:56:27;18.50;99.90
10417;DHT22;62605;49.432;8.680;2023-07-30T03:58:57;18.50;99.90
10417;DHT22;62605;49.432;8.680;2023-07-30T04:01:25;18.50;99.90
10417;DHT22;62605;49.432;8.680;2023-07-30T04:03:53;18.50;99.90
10417;DHT22;62605;49.432;8.680;2023-07-30T04:06:20;18.50;99.90
10417;DHT22;62605;49.432;8.680;2023-07-30T04:08:47;18.50;99.90
10417;DHT22;62605;49.432;8.680;2023-07-30T04:11:14;18.50;99.90
10417;DHT22;62605;49.432;8.680;2023-07-30T04:13:44;18.50;99.90
10417;DHT22;62605;49.432;8.680;2023-07-30T04:16:12;18.50;99.90
10417;DHT22;62605;49.432;8.680;2023-07-30T04:18:39;18.50;99.90
10417;DHT22;62605;49.432;8.680;2023-07-30T04:21:08;18.50;99.90
10417;DHT22;62605;49.432;8.680;2023-07-30T04:23:36;18.50;99.90
10417;DHT22;62605;49.432;8.680;2023-07-30T04:26:06;18.50;99.90
10417;DHT22;62605;49.432;8.680;2023-07-30T04:28:33;18.50;99.90
10417;DHT22;62605;49.432;8.680;2023-07-30T04:31:02;18.50;99.90
10417;DHT22;62605;49.432;8.680;2023-07-30T04:33:32;18.50;99.90
10417;DHT22;62605;49.432;8.680;2023-07-30T04:35:59;18.60;99.90
10417;DHT22;62605;49.432;8.680;2023-07-30T04:38:28;18.60;99.90
10417;DHT22;62605;49.432;8.680;2023-07-30T04:40:58;18.50;99.90
10417;DHT22;62605;49.432;8.680;2023-07-30T04:43:25;18.50;99.90
10417;DHT22;62605;49.432;8.680;2023-07-30T04:45:52;18.50;99.90
10417;DHT22;62605;49.432;8.680;2023-07-30T04:48:25;18.50;99.90
10417;DHT22;62605;49.432;8.680;2023-07-30T04:50:55;18.60;99.90
10417;DHT22;62605;49.432;8.680;2023-07-30T04:53:26;18.60;99.90
10417;DHT22;62605;49.432;8.680;2023-07-30T04:55:55;18.60;99.90
10417;DHT22;62605;49.432;8.680;2023-07-30T04:58:28;18.60;99.90
10417;DHT22;62605;49.432;8.680;2023-07-30T05:00:55;18.50;99.90
10417;DHT22;62605;49.432;8.680;2023-07-30T05:03:27;18.60;99.90
10417;DHT22;62605;49.432;8.680;2023-07-30T05:05:57;18.60;99.90
10417;DHT22;62605;49.432;8.680;2023-07-30T05:08:24;18.70;99.90
10417;DHT22;62605;49.432;8.680;2023-07-30T05:10:51;18.70;99.90
10417;DHT22;62605;49.432;8.680;2023-07-30T05:13:19;18.70;99.90
10417;DHT22;62605;49.432;8.680;2023-07-30T05:15:49;18.70;99.90
10417;DHT22;62605;49.432;8.680;2023-07-30T05:18:16;18.80;99.90
10417;DHT22;62605;49.432;8.680;2023-07-30T05:20:47;18.80;99.90
10417;DHT22;62605;49.432;8.680;2023-07-30T05:23:14;18.90;99.90
10417;DHT22;62605;49.432;8.680;2023-07-30T05:25:41;18.90;99.90
10417;DHT22;62605;49.432;8.680;2023-07-30T05:28:12;18.90;99.90
10417;DHT22;62605;49.432;8.680;2023-07-30T05:30:39;18.90;99.90
10417;DHT22;62605;49.432;8.680;2023-07-30T05:33:06;18.90;99.90
10417;DHT22;62605;49.432;8.680;2023-07-30T05:35:33;18.90;99.90
10417;DHT22;62605;49.432;8.680;2023-07-30T05:38:02;18.90;99.90
10417;DHT22;62605;49.432;8.680;2023-07-30T05:40:29;18.90;99.90
10417;DHT22;62605;49.432;8.680;2023-07-30T05:43:00;18.90;99.90
10417;DHT22;62605;49.432;8.680;2023-07-30T05:45:28;18.90;99.90
10417;DHT22;62605;49.432;8.680;2023-07-30T05:47:56;19.10;99.90
10417;DHT22;62605;49.432;8.680;2023-07-30T05:50:23;19.00;99.90
10417;DHT22;62605;49.432;8.680;2023-07-30T05:52:50;19.00;99.90
10417;DHT22;62605;49.432;8.680;2023-07-30T05:55:19;18.90;99.90
10417;DHT22;62605;49.432;8.680;2023-07-30T05:57:46;19.00;99.90
10417;DHT22;62605;49.432;8.680;2023-07-30T06:00:13;19.00;99.90
10417;DHT22;62605;49.432;8.680;2023-07-30T06:02:41;19.10;99.90
10417;DHT22;62605;49.432;8.680;2023-07-30T06:05:12;19.10;99.90
10417;DHT22;62605;49.432;8.680;2023-07-30T06:07:41;19.30;99.90
10417;DHT22;62605;49.432;8.680;2023-07-30T06:10:12;19.30;99.90
10417;DHT22;62605;49.432;8.680;2023-07-30T06:13:01;19.50;99.90
10417;DHT22;62605;49.432;8.680;2023-07-30T06:15:29;19.70;99.90
10417;DHT22;62605;49.432;8.680;2023-07-30T06:17:56;19.70;99.90
10417;DHT22;62605;49.432;8.680;2023-07-30T06:20:24;19.90;99.90
10417;DHT22;62605;49.432;8.680;2023-07-30T06:22:51;19.70;99.90
10417;DHT22;62605;49.432;8.680;2023-07-30T06:25:18;19.70;99.90
10417;DHT22;62605;49.432;8.680;2023-07-30T06:27:45;19.70;99.90
10417;DHT22;62605;49.432;8.680;2023-07-30T06:30:16;19.70;99.90
10417;DHT22;62605;49.432;8.680;2023-07-30T06:32:43;19.60;99.90
10417;DHT22;62605;49.432;8.680;2023-07-30T06:35:10;19.70;99.90
10417;DHT22;62605;49.432;8.680;2023-07-30T06:37:37;19.70;99.90
10417;DHT22;62605;49.432;8.680;2023-07-30T06:40:05;19.70;99.90
10417;DHT22;62605;49.432;8.680;2023-07-30T06:42:33;19.80;99.90
10417;DHT22;62605;49.432;8.680;2023-07-30T06:45:00;19.90;99.90
10417;DHT22;62605;49.432;8.680;2023-07-30T06:47:28;19.90;99.90
10417;DHT22;62605;49.432;8.680;2023-07-30T06:49:55;20.00;99.90
10417;DHT22;62605;49.432;8.680;2023-07-30T06:52:22;20.10;99.90
10417;DHT22;62605;49.432;8.680;2023-07-30T06:54:49;20.00;99.90
10417;DHT22;62605;49.432;8.680;2023-07-30T06:57:16;20.10;99.90
10417;DHT22;62605;49.432;8.680;2023-07-30T06:59:43;20.10;99.90
10417;DHT22;62605;49.432;8.680;2023-07-30T07:02:10;20.10;99.90
10417;DHT22;62605;49.432;8.680;2023-07-30T07:04:39;20.20;99.90
10417;DHT22;62605;49.432;8.680;2023-07-30T07:07:06;20.50;99.90
10417;DHT22;62605;49.432;8.680;2023-07-30T07:09:33;20.50;99.90
10417;DHT22;62605;49.432;8.680;2023-07-30T07:12:00;20.50;99.90
10417;DHT22;62605;49.432;8.680;2023-07-30T07:14:27;20.40;99.90
10417;DHT22;62605;49.432;8.680;2023-07-30T07:16:54;20.10;99.90
10417;DHT22;62605;49.432;8.680;2023-07-30T07:19:22;20.00;99.90
10417;DHT22;62605;49.432;8.680;2023-07-30T07:21:51;20.00;99.90
10417;DHT22;62605;49.432;8.680;2023-07-30T07:24:18;20.00;99.90
10417;DHT22;62605;49.432;8.680;2023-07-30T07:26:45;20.20;99.90
10417;DHT22;62605;49.432;8.680;2023-07-30T07:29:12;20.10;99.90
10417;DHT22;62605;49.432;8.680;2023-07-30T07:31:39;20.00;99.90
10417;DHT22;62605;49.432;8.680;2023-07-30T07:34:06;20.00;99.90
10417;DHT22;62605;49.432;8.680;2023-07-30T07:36:34;19.90;99.90
10417;DHT22;62605;49.432;8.680;2023-07-30T07:39:05;19.80;99.90
10417;DHT22;62605;49.432;8.680;2023-07-30T07:41:32;19.80;99.90
10417;DHT22;62605;49.432;8.680;2023-07-30T07:43:59;19.90;99.90
10417;DHT22;62605;49.432;8.680;2023-07-30T07:46:27;19.90;99.90
10417;DHT22;62605;49.432;8.680;2023-07-30T07:48:55;20.00;99.90
10417;DHT22;62605;49.432;8.680;2023-07-30T07:51:22;19.90;99.90
10417;DHT22;62605;49.432;8.680;2023-07-30T07:53:49;19.90;99.90
10417;DHT22;62605;49.432;8.680;2023-07-30T07:56:19;19.90;99.90
10417;DHT22;62605;49.432;8.680;2023-07-30T07:58:46;19.80;99.90
10417;DHT22;62605;49.432;8.680;2023-07-30T08:01:13;19.90;99.90
10417;DHT22;62605;49.432;8.680;2023-07-30T08:03:40;19.90;99.90
10417;DHT22;62605;49.432;8.680;2023-07-30T08:06:08;19.90;99.90
10417;DHT22;62605;49.432;8.680;2023-07-30T08:08:35;20.20;99.90
10417;DHT22;62605;49.432;8.680;2023-07-30T08:11:05;20.30;99.90
10417;DHT22;62605;49.432;8.680;2023-07-30T08:13:33;20.40;99.90
10417;DHT22;62605;49.432;8.680;2023-07-30T08:16:01;20.60;99.90
10417;DHT22;62605;49.432;8.680;2023-07-30T08:18:28;21.00;99.90
10417;DHT22;62605;49.432;8.680;2023-07-30T08:20:55;21.10;99.90
10417;DHT22;62605;49.432;8.680;2023-07-30T08:23:23;21.20;99.90
10417;DHT22;62605;49.432;8.680;2023-07-30T08:25:50;21.40;99.90
10417;DHT22;62605;49.432;8.680;2023-07-30T08:28:17;21.40;99.90
10417;DHT22;62605;49.432;8.680;2023-07-30T08:30:46;21.20;99.90
10417;DHT22;62605;49.432;8.680;2023-07-30T08:33:13;21.30;99.90
10417;DHT22;62605;49.432;8.680;2023-07-30T08:35:41;21.50;99.90
10417;DHT22;62605;49.432;8.680;2023-07-30T08:38:08;21.80;99.90
10417;DHT22;62605;49.432;8.680;2023-07-30T08:40:35;21.40;99.90
10417;DHT22;62605;49.432;8.680;2023-07-30T08:43:02;21.20;99.90
10417;DHT22;62605;49.432;8.680;2023-07-30T08:45:30;21.20;99.90
10417;DHT22;62605;49.432;8.680;2023-07-30T08:47:59;21.40;99.90
10417;DHT22;62605;49.432;8.680;2023-07-30T08:50:26;21.90;99.90
10417;DHT22;62605;49.432;8.680;2023-07-30T08:52:55;22.10;99.90
10417;DHT22;62605;49.432;8.680;2023-07-30T08:55:23;22.00;99.90
10417;DHT22;62605;49.432;8.680;2023-07-30T08:57:51;22.10;99.90
10417;DHT22;62605;49.432;8.680;2023-07-30T09:00:20;21.90;99.90
10417;DHT22;62605;49.432;8.680;2023-07-30T09:02:52;22.10;99.90
10417;DHT22;62605;49.432;8.680;2023-07-30T09:05:21;22.50;99.90
10417;DHT22;62605;49.432;8.680;2023-07-30T09:07:49;22.90;99.90
10417;DHT22;62605;49.432;8.680;2023-07-30T09:10:16;22.70;99.90
10417;DHT22;62605;49.432;8.680;2023-07-30T09:12:43;22.80;99.90
10417;DHT22;62605;49.432;8.680;2023-07-30T09:15:10;23.10;99.90
10417;DHT22;62605;49.432;8.680;2023-07-30T09:17:38;23.20;99.90
10417;DHT22;62605;49.432;8.680;2023-07-30T09:20:07;23.00;99.90
10417;DHT22;62605;49.432;8.680;2023-07-30T09:22:38;23.30;99.90
10417;DHT22;62605;49.432;8.680;2023-07-30T09:25:07;23.40;99.90
10417;DHT22;62605;49.432;8.680;2023-07-30T09:27:35;22.80;99.90
10417;DHT22;62605;49.432;8.680;2023-07-30T09:30:04;22.90;99.90
10417;DHT22;62605;49.432;8.680;2023-07-30T09:32:33;22.80;99.90
10417;DHT22;62605;49.432;8.680;2023-07-30T09:35:04;23.10;99.90
10417;DHT22;62605;49.432;8.680;2023-07-30T09:37:38;23.10;99.90
10417;DHT22;62605;49.432;8.680;2023-07-30T09:40:06;23.10;99.90
10417;DHT22;62605;49.432;8.680;2023-07-30T09:42:35;22.70;99.90
10417;DHT22;62605;49.432;8.680;2023-07-30T09:45:06;22.60;99.90
10417;DHT22;62605;49.432;8.680;2023-07-30T09:47:33;22.50;99.90
10417;DHT22;62605;49.432;8.680;2023-07-30T09:50:03;22.50;99.90
10417;DHT22;62605;49.432;8.680;2023-07-30T09:52:31;22.30;99.90
10417;DHT22;62605;49.432;8.680;2023-07-30T09:55:02;22.60;99.90
10417;DHT22;62605;49.432;8.680;2023-07-30T09:57:33;22.50;99.90
10417;DHT22;62605;49.432;8.680;2023-07-30T10:00:01;22.00;99.90
10417;DHT22;62605;49.432;8.680;2023-07-30T10:02:37;21.90;99.90
10417;DHT22;62605;49.432;8.680;2023-07-30T10:05:10;21.80;99.90
10417;DHT22;62605;49.432;8.680;2023-07-30T10:07:40;21.70;99.90
10417;DHT22;62605;49.432;8.680;2023-07-30T10:10:12;21.80;99.90
10417;DHT22;62605;49.432;8.680;2023-07-30T10:12:39;21.80;99.90
10417;DHT22;62605;49.432;8.680;2023-07-30T10:15:08;22.00;99.90
10417;DHT22;62605;49.432;8.680;2023-07-30T10:17:38;22.70;99.90
10417;DHT22;62605;49.432;8.680;2023-07-30T10:20:20;23.00;99.90
10417;DHT22;62605;49.432;8.680;2023-07-30T10:22:51;22.70;99.90
10417;DHT22;62605;49.432;8.680;2023-07-30T10:25:27;23.30;99.90
10417;DHT22;62605;49.432;8.680;2023-07-30T10:27:54;23.00;99.90
10417;DHT22;62605;49.432;8.680;2023-07-30T10:30:21;22.80;99.90
10417;DHT22;62605;49.432;8.680;2023-07-30T10:33:02;22.50;99.90
10417;DHT22;62605;49.432;8.680;2023-07-30T10:35:38;22.80;99.90
10417;DHT22;62605;49.432;8.680;2023-07-30T10:38:17;22.70;99.90
10417;DHT22;62605;49.432;8.680;2023-07-30T10:41:05;22.20;99.90
10417;DHT22;62605;49.432;8.680;2023-07-30T10:43:35;21.70;99.90
10417;DHT22;62605;49.432;8.680;2023-07-30T10:46:02;21.60;99.90
10417;DHT22;62605;49.432;8.680;2023-07-30T10:48:33;21.50;99.90
10417;DHT22;62605;49.432;8.680;2023-07-30T10:51:02;21.60;99.90
10417;DHT22;62605;49.432;8.680;2023-07-30T10:53:29;21.90;99.90
10417;DHT22;62605;49.432;8.680;2023-07-30T10:55:58;21.80;99.90
10417;DHT22;62605;49.432;8.680;2023-07-30T10:58:30;22.10;99.90
10417;DHT22;62605;49.432;8.680;2023-07-30T11:01:00;22.20;99.90
10417;DHT22;62605;49.432;8.680;2023-07-30T11:03:28;22.50;99.90
10417;DHT22;62605;49.432;8.680;2023-07-30T11:05:57;22.30;99.90
10417;DHT22;62605;49.432;8.680;2023-07-30T11:08:32;22.20;99.90
10417;DHT22;62605;49.432;8.680;2023-07-30T11:10:59;22.10;99.90
10417;DHT22;62605;49.432;8.680;2023-07-30T11:13:27;22.20;99.90
10417;DHT22;62605;49.432;8.680;2023-07-30T11:15:55;22.50;99.90
10417;DHT22;62605;49.432;8.680;2023-07-30T11:18:22;22.60;99.90
10417;DHT22;62605;49.432;8.680;2023-07-30T11:20:49;22.40;99.90
10417;DHT22;62605;49.432;8.680;2023-07-30T11:23:18;22.70;99.90
10417;DHT22;62605;49.432;8.680;2023-07-30T11:25:46;22.80;99.90
10417;DHT22;62605;49.432;8.680;2023-07-30T11:28:15;22.90;99.90
10417;DHT22;62605;49.432;8.680;2023-07-30T11:30:42;23.00;99.90
10417;DHT22;62605;49.432;8.680;2023-07-30T11:33:16;23.70;99.90
10417;DHT22;62605;49.432;8.680;2023-07-30T11:35:44;23.80;99.90
10417;DHT22;62605;49.432;8.680;2023-07-30T11:38:12;23.30;99.90
10417;DHT22;62605;49.432;8.680;2023-07-30T11:40:39;23.40;99.90
10417;DHT22;62605;49.432;8.680;2023-07-30T11:43:07;23.00;99.90
10417;DHT22;62605;49.432;8.680;2023-07-30T11:45:35;22.80;99.90
10417;DHT22;62605;49.432;8.680;2023-07-30T11:48:09;22.70;99.90
10417;DHT22;62605;49.432;8.680;2023-07-30T11:50:45;22.30;99.90
10417;DHT22;62605;49.432;8.680;2023-07-30T11:53:13;22.00;99.90
10417;DHT22;62605;49.432;8.680;2023-07-30T11:55:41;22.20;99.90
10417;DHT22;62605;49.432;8.680;2023-07-30T11:58:09;22.60;99.90
10417;DHT22;62605;49.432;8.680;2023-07-30T12:00:37;22.80;99.90
10417;DHT22;62605;49.432;8.680;2023-07-30T12:03:05;22.80;99.90
10417;DHT22;62605;49.432;8.680;2023-07-30T12:05:34;22.70;99.90
10417;DHT22;62605;49.432;8.680;2023-07-30T12:08:15;22.70;99.90
10417;DHT22;62605;49.432;8.680;2023-07-30T12:10:48;22.50;99.90
10417;DHT22;62605;49.432;8.680;2023-07-30T12:13:19;22.10;99.90
10417;DHT22;62605;49.432;8.680;2023-07-30T12:15:52;22.10;99.90
10417;DHT22;62605;49.432;8.680;2023-07-30T12:18:21;22.10;99.90
10417;DHT22;62605;49.432;8.680;2023-07-30T12:20:52;22.10;99.90
10417;DHT22;62605;49.432;8.680;2023-07-30T12:23:20;22.40;99.90
10417;DHT22;62605;49.432;8.680;2023-07-30T12:25:48;22.70;99.90
10417;DHT22;62605;49.432;8.680;2023-07-30T12:28:15;23.00;99.90
10417;DHT22;62605;49.432;8.680;2023-07-30T12:30:42;23.00;99.90
10417;DHT22;62605;49.432;8.680;2023-07-30T12:33:09;22.80;99.90
10417;DHT22;62605;49.432;8.680;2023-07-30T12:35:36;22.20;99.90
10417;DHT22;62605;49.432;8.680;2023-07-30T12:38:03;22.00;99.90
10417;DHT22;62605;49.432;8.680;2023-07-30T12:40:31;22.30;99.90
10417;DHT22;62605;49.432;8.680;2023-07-30T12:43:00;22.40;99.90
10417;DHT22;62605;49.432;8.680;2023-07-30T12:45:28;22.90;99.90
10417;DHT22;62605;49.432;8.680;2023-07-30T12:47:55;22.90;99.90
10417;DHT22;62605;49.432;8.680;2023-07-30T12:50:22;22.70;99.90
10417;DHT22;62605;49.432;8.680;2023-07-30T12:52:49;22.30;99.90
10417;DHT22;62605;49.432;8.680;2023-07-30T12:55:16;22.10;99.90
10417;DHT22;62605;49.432;8.680;2023-07-30T12:57:45;21.80;99.90
10417;DHT22;62605;49.432;8.680;2023-07-30T13:00:12;21.60;99.90
10417;DHT22;62605;49.432;8.680;2023-07-30T13:02:40;21.50;99.90
10417;DHT22;62605;49.432;8.680;2023-07-30T13:05:07;21.70;99.90
10417;DHT22;62605;49.432;8.680;2023-07-30T13:07:35;22.10;99.90
10417;DHT22;62605;49.432;8.680;2023-07-30T13:10:03;22.60;99.90
10417;DHT22;62605;49.432;8.680;2023-07-30T13:12:31;22.80;99.90
10417;DHT22;62605;49.432;8.680;2023-07-30T13:15:01;22.90;99.90
10417;DHT22;62605;49.432;8.680;2023-07-30T13:17:29;22.70;99.90
10417;DHT22;62605;49.432;8.680;2023-07-30T13:19:57;22.80;99.90
10417;DHT22;62605;49.432;8.680;2023-07-30T13:22:24;22.90;99.90
10417;DHT22;62605;49.432;8.680;2023-07-30T13:24:51;23.10;99.90
10417;DHT22;62605;49.432;8.680;2023-07-30T13:27:20;23.50;99.90
10417;DHT22;62605;49.432;8.680;2023-07-30T13:29:47;23.20;99.90
10417;DHT22;62605;49.432;8.680;2023-07-30T13:32:16;22.90;99.90
10417;DHT22;62605;49.432;8.680;2023-07-30T13:34:43;23.30;99.90
10417;DHT22;62605;49.432;8.680;2023-07-30T13:37:10;23.10;99.90
10417;DHT22;62605;49.432;8.680;2023-07-30T13:39:38;22.70;99.90
10417;DHT22;62605;49.432;8.680;2023-07-30T13:42:05;22.50;99.90
10417;DHT22;62605;49.432;8.680;2023-07-30T13:44:32;22.30;99.90
10417;DHT22;62605;49.432;8.680;2023-07-30T13:47:00;21.90;99.90
10417;DHT22;62605;49.432;8.680;2023-07-30T13:49:28;22.10;99.90
10417;DHT22;62605;49.432;8.680;2023-07-30T13:51:55;22.60;99.90
10417;DHT22;62605;49.432;8.680;2023-07-30T13:54:22;22.60;99.90
10417;DHT22;62605;49.432;8.680;2023-07-30T13:56:49;22.30;99.90
10417;DHT22;62605;49.432;8.680;2023-07-30T13:59:16;22.20;99.90
10417;DHT22;62605;49.432;8.680;2023-07-30T14:01:43;22.30;99.90
10417;DHT22;62605;49.432;8.680;2023-07-30T14:04:10;22.50;99.90
10417;DHT22;62605;49.432;8.680;2023-07-30T14:06:39;22.40;99.90
10417;DHT22;62605;49.432;8.680;2023-07-30T14:09:06;22.50;99.90
10417;DHT22;62605;49.432;8.680;2023-07-30T14:11:33;22.40;99.90
10417;DHT22;62605;49.432;8.680;2023-07-30T14:14:00;22.20;99.90
10417;DHT22;62605;49.432;8.680;2023-07-30T14:16:27;22.40;99.90
10417;DHT22;62605;49.432;8.680;2023-07-30T14:18:54;22.30;99.90
10417;DHT22;62605;49.432;8.680;2023-07-30T14:21:21;22.40;99.90
10417;DHT22;62605;49.432;8.680;2023-07-30T14:23:49;23.20;99.90
10417;DHT22;62605;49.432;8.680;2023-07-30T14:26:17;23.20;99.90
10417;DHT22;62605;49.432;8.680;2023-07-30T14:28:43;23.00;99.90
10417;DHT22;62605;49.432;8.680;2023-07-30T14:31:12;22.90;99.90
10417;DHT22;62605;49.432;8.680;2023-07-30T14:33:40;23.40;99.90
10417;DHT22;62605;49.432;8.680;2023-07-30T14:36:07;23.40;99.90
10417;DHT22;62605;49.432;8.680;2023-07-30T14:38:36;23.30;99.90
10417;DHT22;62605;49.432;8.680;2023-07-30T14:41:05;23.50;99.90
10417;DHT22;62605;49.432;8.680;2023-07-30T14:43:34;23.60;99.90
10417;DHT22;62605;49.432;8.680;2023-07-30T14:46:01;23.10;99.90
10417;DHT22;62605;49.432;8.680;2023-07-30T14:48:28;23.40;99.90
10417;DHT22;62605;49.432;8.680;2023-07-30T14:50:55;23.70;99.90
10417;DHT22;62605;49.432;8.680;2023-07-30T14:53:22;24.10;99.90
10417;DHT22;62605;49.432;8.680;2023-07-30T14:55:49;23.70;99.90
10417;DHT22;62605;49.432;8.680;2023-07-30T14:58:17;23.50;99.90
10417;DHT22;62605;49.432;8.680;2023-07-30T15:00:44;22.90;99.90
10417;DHT22;62605;49.432;8.680;2023-07-30T15:03:12;22.90;99.90
10417;DHT22;62605;49.432;8.680;2023-07-30T15:05:39;23.40;99.90
10417;DHT22;62605;49.432;8.680;2023-07-30T15:08:06;23.50;99.90
10417;DHT22;62605;49.432;8.680;2023-07-30T15:10:33;23.40;99.90
10417;DHT22;62605;49.432;8.680;2023-07-30T15:13:00;23.30;99.90
10417;DHT22;62605;49.432;8.680;2023-07-30T15:15:30;23.00;99.90
10417;DHT22;62605;49.432;8.680;2023-07-30T15:17:57;22.70;99.90
10417;DHT22;62605;49.432;8.680;2023-07-30T15:20:24;22.70;99.90
10417;DHT22;62605;49.432;8.680;2023-07-30T15:22:53;23.10;99.90
10417;DHT22;62605;49.432;8.680;2023-07-30T15:25:20;23.90;99.90
10417;DHT22;62605;49.432;8.680;2023-07-30T15:27:48;24.10;99.90
10417;DHT22;62605;49.432;8.680;2023-07-30T15:30:15;23.80;99.90
10417;DHT22;62605;49.432;8.680;2023-07-30T15:32:44;23.20;99.90
10417;DHT22;62605;49.432;8.680;2023-07-30T15:35:11;22.80;99.90
10417;DHT22;62605;49.432;8.680;2023-07-30T15:37:39;22.80;99.90
10417;DHT22;62605;49.432;8.680;2023-07-30T15:40:07;22.70;99.90
10417;DHT22;62605;49.432;8.680;2023-07-30T15:42:34;22.60;99.90
10417;DHT22;62605;49.432;8.680;2023-07-30T15:45:02;22.60;99.90
10417;DHT22;62605;49.432;8.680;2023-07-30T15:47:29;22.60;99.90
10417;DHT22;62605;49.432;8.680;2023-07-30T15:49:57;22.50;99.90
10417;DHT22;62605;49.432;8.680;2023-07-30T15:52:24;22.90;99.90
10417;DHT22;62605;49.432;8.680;2023-07-30T15:54:51;22.70;99.90
10417;DHT22;62605;49.432;8.680;2023-07-30T15:57:19;22.90;99.90
10417;DHT22;62605;49.432;8.680;2023-07-30T15:59:45;23.90;99.90
10417;DHT22;62605;49.432;8.680;2023-07-30T16:02:13;23.60;99.90
10417;DHT22;62605;49.432;8.680;2023-07-30T16:04:40;23.90;99.90
10417;DHT22;62605;49.432;8.680;2023-07-30T16:07:09;24.20;99.90
10417;DHT22;62605;49.432;8.680;2023-07-30T16:09:38;23.40;99.90
10417;DHT22;62605;49.432;8.680;2023-07-30T16:12:06;22.90;99.90
10417;DHT22;62605;49.432;8.680;2023-07-30T16:14:33;22.80;99.90
10417;DHT22;62605;49.432;8.680;2023-07-30T16:17:00;22.60;99.90
10417;DHT22;62605;49.432;8.680;2023-07-30T16:19:27;23.00;99.90
10417;DHT22;62605;49.432;8.680;2023-07-30T16:21:54;23.00;99.90
10417;DHT22;62605;49.432;8.680;2023-07-30T16:24:23;22.70;99.90
10417;DHT22;62605;49.432;8.680;2023-07-30T16:26:50;22.60;99.90
10417;DHT22;62605;49.432;8.680;2023-07-30T16:29:17;23.00;99.90
10417;DHT22;62605;49.432;8.680;2023-07-30T16:31:44;23.50;99.90
10417;DHT22;62605;49.432;8.680;2023-07-30T16:34:11;23.80;99.90
10417;DHT22;62605;49.432;8.680;2023-07-30T16:36:39;23.80;99.90
10417;DHT22;62605;49.432;8.680;2023-07-30T16:39:06;23.70;99.90
10417;DHT22;62605;49.432;8.680;2023-07-30T16:41:35;23.80;99.90
10417;DHT22;62605;49.432;8.680;2023-07-30T16:44:02;24.10;99.90
10417;DHT22;62605;49.432;8.680;2023-07-30T16:46:29;23.70;99.90
10417;DHT22;62605;49.432;8.680;2023-07-30T16:48:56;23.40;99.90
10417;DHT22;62605;49.432;8.680;2023-07-30T16:51:23;23.10;99.90
10417;DHT22;62605;49.432;8.680;2023-07-30T16:53:50;22.50;99.90
10417;DHT22;62605;49.432;8.680;2023-07-30T16:56:17;22.40;99.90
10417;DHT22;62605;49.432;8.680;2023-07-30T16:58:46;22.30;99.90
10417;DHT22;62605;49.432;8.680;2023-07-30T17:01:13;22.30;99.90
10417;DHT22;62605;49.432;8.680;2023-07-30T17:03:40;22.30;99.90
10417;DHT22;62605;49.432;8.680;2023-07-30T17:06:08;22.30;99.90
10417;DHT22;62605;49.432;8.680;2023-07-30T17:08:35;22.10;99.90
10417;DHT22;62605;49.432;8.680;2023-07-30T17:11:03;22.20;99.90
10417;DHT22;62605;49.432;8.680;2023-07-30T17:13:33;22.00;99.90
10417;DHT22;62605;49.432;8.680;2023-07-30T17:16:06;22.10;99.90
10417;DHT22;62605;49.432;8.680;2023-07-30T17:18:33;22.00;99.90
10417;DHT22;62605;49.432;8.680;2023-07-30T17:21:00;22.00;99.90
10417;DHT22;62605;49.432;8.680;2023-07-30T17:23:28;22.00;99.90
10417;DHT22;62605;49.432;8.680;2023-07-30T17:25:56;22.20;99.90
10417;DHT22;62605;49.432;8.680;2023-07-30T17:28:24;22.10;99.90
10417;DHT22;62605;49.432;8.680;2023-07-30T17:30:51;22.00;99.90
10417;DHT22;62605;49.432;8.680;2023-07-30T17:33:20;21.80;99.90